createdAt,value
2022-09-28T00:01:19.340Z,100241.16
2022-09-28T00:03:51.853Z,100231.25
2022-09-28T00:06:22.157Z,100221.50
2022-09-28T00:08:50.977Z,100231.06
2022-09-28T00:11:21.364Z,100230.03
2022-09-28T00:13:51.471Z,100222.78
2022-09-28T00:16:21.347Z,100219.75
2022-09-28T00:18:51.534Z,100223.41
2022-09-28T00:21:21.698Z,100215.94
2022-09-28T00:24:10.837Z,100214.72
2022-09-28T00:26:40.762Z,100220.00
2022-09-28T00:29:15.516Z,100210.28
2022-09-28T00:31:43.735Z,100210.28
2022-09-28T00:34:13.868Z,100210.47
2022-09-28T00:36:45.779Z,100208.03
2022-09-28T00:39:15.621Z,100205.28
2022-09-28T00:41:44.115Z,100210.97
2022-09-28T00:44:45.614Z,100208.50
2022-09-28T00:47:31.343Z,100213.50
2022-09-28T00:50:04.654Z,100209.44
2022-09-28T00:52:36.425Z,100217.16
2022-09-28T00:55:09.584Z,100210.59
2022-09-28T00:57:39.726Z,100211.00
2022-09-28T01:00:09.235Z,100209.06
2022-09-28T01:02:37.511Z,100216.44
2022-09-28T01:05:10.369Z,100202.44
2022-09-28T01:07:38.923Z,100206.69
2022-09-28T01:10:08.254Z,100206.69
2022-09-28T01:12:36.477Z,100203.69
2022-09-28T01:15:06.385Z,100207.16
2022-09-28T01:17:49.983Z,100205.31
2022-09-28T01:20:50.206Z,100202.06
2022-09-28T01:23:53.374Z,100203.44
2022-09-28T01:26:39.455Z,100205.25
2022-09-28T01:29:17.871Z,100203.06
2022-09-28T01:31:51.544Z,100201.63
2022-09-28T01:34:25.514Z,100207.34
2022-09-28T01:36:57.429Z,100212.63
2022-09-28T01:39:30.694Z,100213.44
2022-09-28T01:42:05.852Z,100211.81
2022-09-28T01:44:40.027Z,100208.78
2022-09-28T01:47:12.053Z,100212.22
2022-09-28T01:49:45.149Z,100217.25
2022-09-28T01:52:18.912Z,100217.78
2022-09-28T01:54:53.306Z,100220.97
2022-09-28T01:57:28.060Z,100225.44
2022-09-28T02:00:01.328Z,100209.63
2022-09-28T02:02:34.091Z,100211.06
2022-09-28T02:05:08.912Z,100204.44
2022-09-28T02:07:42.593Z,100217.34
2022-09-28T02:10:15.257Z,100220.16
2022-09-28T02:12:47.878Z,100212.25
2022-09-28T02:15:20.689Z,100215.44
2022-09-28T02:17:49.667Z,100214.00
2022-09-28T02:20:18.236Z,100214.81
2022-09-28T02:22:51.278Z,100210.91
2022-09-28T02:25:29.180Z,100217.19
2022-09-28T02:28:02.042Z,100211.91
2022-09-28T02:30:32.125Z,100217.63
2022-09-28T02:33:06.901Z,100213.59
2022-09-28T02:35:35.473Z,100210.16
2022-09-28T02:38:03.816Z,100213.19
2022-09-28T02:40:34.870Z,100214.47
2022-09-28T02:43:15.230Z,100214.00
2022-09-28T02:45:52.715Z,100211.16
2022-09-28T02:48:44.093Z,100211.63
2022-09-28T02:51:25.700Z,100208.78
2022-09-28T02:54:23.560Z,100209.53
2022-09-28T02:57:12.165Z,100209.34
2022-09-28T03:00:03.220Z,100192.91
2022-09-28T03:02:37.062Z,100204.25
2022-09-28T03:05:13.482Z,100210.72
2022-09-28T03:07:47.081Z,100204.25
2022-09-28T03:10:20.809Z,100196.91
2022-09-28T03:12:50.632Z,100203.19
2022-09-28T03:15:25.444Z,100201.72
2022-09-28T03:17:54.099Z,100197.09
2022-09-28T03:20:22.549Z,100204.34
2022-09-28T03:23:12.293Z,100202.09
2022-09-28T03:25:39.339Z,100198.81
2022-09-28T03:28:07.453Z,100195.09
2022-09-28T03:30:36.998Z,100198.53
2022-09-28T03:33:07.181Z,100204.56
2022-09-28T03:35:35.662Z,100205.53
2022-09-28T03:38:03.880Z,100205.91
2022-09-28T03:40:32.160Z,100219.09
2022-09-28T03:43:01.916Z,100212.81
2022-09-28T03:45:30.382Z,100203.72
2022-09-28T03:48:00.358Z,100199.91
2022-09-28T03:50:28.692Z,100208.47
2022-09-28T03:52:56.829Z,100203.81
2022-09-28T03:55:25.043Z,100208.06
2022-09-28T03:57:56.231Z,100204.09
2022-09-28T04:00:24.446Z,100198.81
2022-09-28T04:02:52.706Z,100202.09
2022-09-28T04:05:22.209Z,100204.09
2022-09-28T04:07:50.324Z,100202.09
2022-09-28T04:10:18.509Z,100197.66
2022-09-28T04:12:47.094Z,100198.47
2022-09-28T04:15:15.378Z,100194.63
2022-09-28T04:17:45.069Z,100198.88
2022-09-28T04:20:13.167Z,100199.19
2022-09-28T04:22:43.370Z,100200.97
2022-09-28T04:25:11.819Z,100199.53
2022-09-28T04:27:57.042Z,100200.97
2022-09-28T04:30:25.677Z,100186.00
2022-09-28T04:32:53.894Z,100194.34
2022-09-28T04:35:21.966Z,100197.38
2022-09-28T04:37:51.689Z,100200.00
2022-09-28T04:40:19.889Z,100192.25
2022-09-28T04:42:54.686Z,100188.81
2022-09-28T04:45:22.777Z,100184.19
2022-09-28T04:47:50.947Z,100188.44
2022-09-28T04:50:19.149Z,100181.91
2022-09-28T04:52:47.229Z,100192.44
2022-09-28T04:55:17.861Z,100194.06
2022-09-28T04:57:46.086Z,100182.25
2022-09-28T05:00:15.397Z,100190.97
2022-09-28T05:02:43.588Z,100185.28
2022-09-28T05:05:11.845Z,100196.63
2022-09-28T05:07:41.881Z,100192.00
2022-09-28T05:10:10.312Z,100191.81
2022-09-28T05:12:39.963Z,100195.28
2022-09-28T05:15:08.763Z,100200.72
2022-09-28T05:17:36.875Z,100208.00
2022-09-28T05:20:05.710Z,100209.00
2022-09-28T05:22:34.503Z,100203.88
2022-09-28T05:25:02.995Z,100204.75
2022-09-28T05:27:31.176Z,100199.28
2022-09-28T05:30:00.639Z,100201.44
2022-09-28T05:32:28.877Z,100189.00
2022-09-28T05:34:57.621Z,100191.81
2022-09-28T05:37:25.761Z,100177.38
2022-09-28T05:39:53.919Z,100190.91
2022-09-28T05:42:22.071Z,100190.09
2022-09-28T05:44:50.358Z,100195.72
2022-09-28T05:47:19.899Z,100201.81
2022-09-28T05:49:48.009Z,100199.34
2022-09-28T05:52:16.198Z,100196.53
2022-09-28T05:54:44.576Z,100191.09
2022-09-28T05:57:12.832Z,100199.97
2022-09-28T05:59:40.957Z,100197.72
2022-09-28T06:02:09.180Z,100202.19
2022-09-28T06:04:38.738Z,100202.81
2022-09-28T06:07:06.956Z,100201.38
2022-09-28T06:09:35.059Z,100206.78
2022-09-28T06:12:03.254Z,100210.63
2022-09-28T06:14:31.487Z,100210.16
2022-09-28T06:16:59.641Z,100211.50
2022-09-28T06:19:27.832Z,100211.69
2022-09-28T06:21:59.292Z,100213.69
2022-09-28T06:24:27.717Z,100209.59
2022-09-28T06:26:55.763Z,100209.94
2022-09-28T06:29:23.867Z,100216.69
2022-09-28T06:31:52.286Z,100218.50
2022-09-28T06:34:21.608Z,100216.41
2022-09-28T06:36:49.837Z,100209.13
2022-09-28T06:39:19.448Z,100212.78
2022-09-28T06:41:47.648Z,100216.22
2022-09-28T06:44:15.778Z,100213.78
2022-09-28T06:46:43.909Z,100218.03
2022-09-28T06:49:15.066Z,100219.22
2022-09-28T06:51:47.502Z,100217.22
2022-09-28T06:54:15.718Z,100218.59
2022-09-28T06:56:45.365Z,100211.50
2022-09-28T06:59:13.652Z,100211.16
2022-09-28T07:01:41.924Z,100204.16
2022-09-28T07:04:10.249Z,100219.59
2022-09-28T07:06:38.683Z,100217.03
2022-09-28T07:09:26.838Z,100225.41
2022-09-28T07:11:57.317Z,100226.00
2022-09-28T07:14:45.979Z,100227.00
2022-09-28T07:17:14.936Z,100222.50
2022-09-28T07:19:43.298Z,100221.03
2022-09-28T07:22:18.887Z,100216.03
2022-09-28T07:24:49.177Z,100216.50
2022-09-28T07:27:19.688Z,100208.41
2022-09-28T07:29:47.771Z,100199.88
2022-09-28T07:32:15.980Z,100200.50
2022-09-28T07:34:44.826Z,100202.16
2022-09-28T07:37:13.545Z,100200.78
2022-09-28T07:39:59.978Z,100216.25
2022-09-28T07:42:30.453Z,100207.88
2022-09-28T07:44:58.968Z,100196.91
2022-09-28T07:47:33.861Z,100191.09
2022-09-28T07:50:03.249Z,100185.19
2022-09-28T07:52:31.472Z,100194.09
2022-09-28T07:55:03.327Z,100188.81
2022-09-28T07:57:36.469Z,100187.66
2022-09-28T08:00:08.114Z,100189.75
2022-09-28T08:02:36.887Z,100190.72
2022-09-28T08:05:05.332Z,100196.84
2022-09-28T08:07:34.681Z,100203.34
2022-09-28T08:10:03.038Z,100207.09
2022-09-28T08:12:31.273Z,100196.28
2022-09-28T08:15:01.167Z,100203.50
2022-09-28T08:17:29.730Z,100204.06
2022-09-28T08:20:15.431Z,100193.03
2022-09-28T08:22:43.566Z,100198.44
2022-09-28T08:25:11.857Z,100194.50
2022-09-28T08:27:40.000Z,100193.72
2022-09-28T08:30:11.469Z,100198.69
2022-09-28T08:32:39.887Z,100193.88
2022-09-28T08:35:08.571Z,100198.41
2022-09-28T08:37:36.924Z,100194.03
2022-09-28T08:40:05.825Z,100188.41
2022-09-28T08:42:41.512Z,100194.97
2022-09-28T08:45:15.576Z,100200.47
2022-09-28T08:48:08.663Z,100201.16
2022-09-28T08:50:54.220Z,100194.97
2022-09-28T08:53:35.554Z,100202.56
2022-09-28T08:56:08.818Z,100198.31
2022-09-28T08:58:42.789Z,100203.03
2022-09-28T09:01:17.338Z,100199.56
2022-09-28T09:03:46.092Z,100203.84
2022-09-28T09:06:26.228Z,100203.84
2022-09-28T09:09:05.197Z,100209.38
2022-09-28T09:11:49.009Z,100210.41
2022-09-28T09:14:39.298Z,100221.25
2022-09-28T09:17:20.016Z,100214.13
2022-09-28T09:19:54.825Z,100212.09
2022-09-28T09:22:39.442Z,100203.78
2022-09-28T09:25:18.473Z,100211.53
2022-09-28T09:28:03.645Z,100213.41
2022-09-28T09:30:46.465Z,100207.34
2022-09-28T09:33:39.709Z,100223.00
2022-09-28T09:36:19.555Z,100221.16
2022-09-28T09:39:01.817Z,100229.75
2022-09-28T09:41:43.452Z,100233.00
2022-09-28T09:44:35.394Z,100235.47
2022-09-28T09:47:09.042Z,100236.13
2022-09-28T09:49:42.843Z,100231.00
2022-09-28T09:52:20.106Z,100228.19
2022-09-28T09:54:55.581Z,100238.34
2022-09-28T09:57:30.743Z,100244.88
2022-09-28T10:00:00.277Z,100247.31
2022-09-28T10:02:31.863Z,100246.59
2022-09-28T10:05:06.014Z,100243.38
2022-09-28T10:07:43.235Z,100239.75
2022-09-28T10:10:15.716Z,100244.50
2022-09-28T10:12:43.949Z,100237.97
2022-09-28T10:15:17.677Z,100239.16
2022-09-28T10:17:46.022Z,100242.22
2022-09-28T10:20:17.146Z,100237.16
2022-09-28T10:22:45.632Z,100242.06
2022-09-28T10:25:14.517Z,100246.31
2022-09-28T10:27:46.568Z,100244.28
2022-09-28T10:30:19.244Z,100246.31
2022-09-28T10:32:48.843Z,100256.28
2022-09-28T10:35:27.710Z,100257.69
2022-09-28T10:37:59.375Z,100259.72
2022-09-28T10:40:32.903Z,100251.97
2022-09-28T10:43:03.071Z,100254.44
2022-09-28T10:45:37.425Z,100250.75
2022-09-28T10:48:16.297Z,100264.81
2022-09-28T10:50:59.388Z,100253.44
2022-09-28T10:53:27.976Z,100250.22
2022-09-28T10:56:02.466Z,100247.13
2022-09-28T10:58:37.403Z,100244.31
2022-09-28T11:01:09.731Z,100252.03
2022-09-28T11:03:50.207Z,100254.06
2022-09-28T11:06:25.993Z,100243.44
2022-09-28T11:08:56.047Z,100237.75
2022-09-28T11:11:25.192Z,100239.31
2022-09-28T11:13:55.274Z,100236.06
2022-09-28T11:16:27.105Z,100237.91
2022-09-28T11:18:55.276Z,100237.50
2022-09-28T11:21:27.637Z,100235.47
2022-09-28T11:24:05.871Z,100238.34
2022-09-28T11:26:42.658Z,100237.31
2022-09-28T11:29:27.866Z,100240.41
2022-09-28T11:32:01.373Z,100240.00
2022-09-28T11:34:57.504Z,100236.16
2022-09-28T11:37:41.655Z,100234.16
2022-09-28T11:40:26.019Z,100233.16
2022-09-28T11:45:53.931Z,100226.72
2022-09-28T11:48:26.996Z,100228.25
2022-09-28T11:50:59.938Z,100221.72
2022-09-28T11:53:36.970Z,100222.81
2022-09-28T11:56:15.964Z,100237.56
2022-09-28T11:58:48.385Z,100245.94
2022-09-28T12:01:24.148Z,100246.41
2022-09-28T12:03:56.847Z,100261.31
2022-09-28T12:06:32.528Z,100265.75
2022-09-28T12:09:12.110Z,100262.06
2022-09-28T12:11:45.188Z,100269.00
2022-09-28T12:14:21.836Z,100257.59
2022-09-28T12:17:11.266Z,100248.84
2022-09-28T12:19:48.469Z,100241.50
2022-09-28T12:22:20.850Z,100242.13
2022-09-28T12:24:54.179Z,100238.44
2022-09-28T12:27:28.535Z,100234.38
2022-09-28T12:30:02.123Z,100234.31
2022-09-28T12:32:37.469Z,100234.88
2022-09-28T12:35:13.355Z,100235.66
2022-09-28T12:38:08.968Z,100226.66
2022-09-28T12:40:49.395Z,100222.97
2022-09-28T12:43:40.715Z,100208.66
2022-09-28T12:46:25.178Z,100202.22
2022-09-28T12:52:19.174Z,100176.38
2022-09-28T12:55:06.065Z,100173.75
2022-09-28T12:57:50.912Z,100166.41
2022-09-28T13:00:23.568Z,100159.72
2022-09-28T13:03:19.306Z,100153.00
2022-09-28T13:06:16.208Z,100154.44
2022-09-28T13:08:55.469Z,100153.22
2022-09-28T13:11:34.802Z,100153.03
2022-09-28T13:14:33.869Z,100147.50
2022-09-28T13:17:12.118Z,100147.31
2022-09-28T13:19:52.387Z,100150.56
2022-09-28T13:22:33.725Z,100151.81
2022-09-28T13:25:11.723Z,100152.44
2022-09-28T13:27:45.515Z,100147.97
2022-09-28T13:30:17.376Z,100143.88
2022-09-28T13:32:46.853Z,100131.19
2022-09-28T13:35:19.578Z,100129.06
2022-09-28T13:37:47.904Z,100127.34
2022-09-28T13:40:16.245Z,100124.97
2022-09-28T13:43:19.415Z,100122.97
2022-09-28T13:45:56.856Z,100124.50
2022-09-28T13:48:35.856Z,100125.44
2022-09-28T13:51:13.851Z,100135.75
2022-09-28T13:54:03.351Z,100156.25
2022-09-28T13:56:38.912Z,100169.13
2022-09-28T13:59:16.832Z,100177.09
2022-09-28T14:01:55.755Z,100178.91
2022-09-28T14:04:25.413Z,100184.03
2022-09-28T14:06:57.692Z,100192.56
2022-09-28T14:09:42.108Z,100186.25
2022-09-28T14:12:44.543Z,100189.25
2022-09-28T14:15:45.258Z,100183.34
2022-09-28T14:18:26.900Z,100192.09
2022-09-28T14:21:24.368Z,100186.59
2022-09-28T14:24:15.587Z,100195.56
2022-09-28T14:27:11.589Z,100188.88
2022-09-28T14:29:40.518Z,100183.56
2022-09-28T14:32:24.742Z,100187.84
2022-09-28T14:35:04.666Z,100187.25
2022-09-28T14:37:52.630Z,100189.28
2022-09-28T14:40:45.865Z,100182.38
2022-09-28T14:43:27.435Z,100181.97
2022-09-28T14:46:36.952Z,100185.00
2022-09-28T14:49:26.849Z,100178.91
2022-09-28T14:52:05.401Z,100174.81
2022-09-28T14:54:50.274Z,100186.44
2022-09-28T14:57:21.449Z,100184.16
2022-09-28T14:59:49.715Z,100181.94
2022-09-28T15:02:25.191Z,100181.53
2022-09-28T15:04:59.928Z,100173.38
2022-09-28T15:07:34.437Z,100168.91
2022-09-28T15:10:03.493Z,100160.16
2022-09-28T15:12:32.717Z,100165.66
2022-09-28T15:15:03.591Z,100171.59
2022-09-28T15:17:39.516Z,100169.97
2022-09-28T15:20:22.760Z,100169.72
2022-09-28T15:22:57.141Z,100172.59
2022-09-28T15:25:27.009Z,100171.19
2022-09-28T15:27:56.848Z,100179.72
2022-09-28T15:30:28.571Z,100174.59
2022-09-28T15:33:17.878Z,100177.03
2022-09-28T15:35:49.998Z,100177.03
2022-09-28T15:38:19.624Z,100179.69
2022-09-28T15:40:48.604Z,100181.72
2022-09-28T15:43:29.137Z,100185.78
2022-09-28T15:46:02.786Z,100175.38
2022-09-28T15:48:40.812Z,100183.09
2022-09-28T15:51:11.831Z,100183.50
2022-09-28T15:53:56.225Z,100190.81
2022-09-28T15:56:24.517Z,100175.56
2022-09-28T15:59:12.552Z,100182.72
2022-09-28T16:01:42.311Z,100179.66
2022-09-28T16:04:40.489Z,100178.66
2022-09-28T16:07:32.272Z,100173.75
2022-09-28T16:10:27.229Z,100183.91
2022-09-28T16:12:58.928Z,100190.44
2022-09-28T16:15:30.281Z,100187.56
2022-09-28T16:18:03.206Z,100190.59
2022-09-28T16:20:34.376Z,100200.16
2022-09-28T16:23:10.041Z,100196.50
2022-09-28T16:25:40.238Z,100195.91
2022-09-28T16:28:09.111Z,100195.91
2022-09-28T16:30:37.413Z,100205.47
2022-09-28T16:33:07.676Z,100209.94
2022-09-28T16:35:52.115Z,100214.22
2022-09-28T16:38:21.127Z,100222.97
2022-09-28T16:40:53.932Z,100224.41
2022-09-28T16:43:27.173Z,100222.38
2022-09-28T16:45:57.695Z,100228.72
2022-09-28T16:48:28.092Z,100233.38
2022-09-28T16:50:56.309Z,100236.66
2022-09-28T16:53:42.205Z,100236.06
2022-09-28T16:56:12.701Z,100250.94
2022-09-28T16:58:42.641Z,100249.91
2022-09-28T17:01:13.053Z,100251.91
2022-09-28T17:03:47.046Z,100259.84
2022-09-28T17:06:16.261Z,100266.00
2022-09-28T17:08:44.840Z,100262.91
2022-09-28T17:11:22.768Z,100264.31
2022-09-28T17:13:56.906Z,100266.53
2022-09-28T17:16:57.291Z,100268.56
2022-09-28T17:19:20.624Z,100272.63
2022-09-28T17:21:49.449Z,100275.47
2022-09-28T17:24:17.531Z,100275.00
2022-09-28T17:26:49.122Z,100279.47
2022-09-28T17:29:18.136Z,100276.19
2022-09-28T17:31:47.806Z,100276.03
2022-09-28T17:34:17.055Z,100277.66
2022-09-28T17:36:46.246Z,100278.66
2022-09-28T17:39:18.467Z,100282.94
2022-09-28T17:41:48.361Z,100287.22
2022-09-28T17:44:16.771Z,100290.88
2022-09-28T17:46:49.179Z,100280.91
2022-09-28T17:49:18.804Z,100285.59
2022-09-28T17:51:47.211Z,100277.81
2022-09-28T17:54:17.059Z,100282.72
2022-09-28T17:56:46.297Z,100277.81
2022-09-28T17:59:19.006Z,100275.75
2022-09-28T18:01:48.330Z,100277.38
2022-09-28T18:04:33.768Z,100280.59
2022-09-28T18:07:05.545Z,100286.69
2022-09-28T18:09:33.834Z,100271.69
2022-09-28T18:12:05.428Z,100273.31
2022-09-28T18:14:35.956Z,100276.31
2022-09-28T18:17:04.566Z,100275.31
2022-09-28T18:19:32.857Z,100273.69
2022-09-28T18:22:01.839Z,100275.06
2022-09-28T18:24:32.523Z,100279.97
2022-09-28T18:27:01.153Z,100279.53
2022-09-28T18:29:33.077Z,100275.25
2022-09-28T18:32:03.607Z,100276.25
2022-09-28T18:34:31.783Z,100277.63
2022-09-28T18:36:59.898Z,100273.00
2022-09-28T18:39:28.121Z,100274.19
2022-09-28T18:41:56.283Z,100271.94
2022-09-28T18:44:24.905Z,100273.13
2022-09-28T18:46:53.063Z,100262.13
2022-09-28T18:49:22.814Z,100270.84
2022-09-28T18:51:51.214Z,100273.47
2022-09-28T18:54:19.490Z,100268.56
2022-09-28T18:56:47.598Z,100264.06
2022-09-28T18:59:16.036Z,100268.91
2022-09-28T19:01:44.373Z,100269.31
2022-09-28T19:04:13.745Z,100277.00
2022-09-28T19:06:44.852Z,100280.00
2022-09-28T19:09:13.600Z,100286.47
2022-09-28T19:11:41.788Z,100287.69
2022-09-28T19:14:11.687Z,100288.69
2022-09-28T19:16:39.809Z,100285.41
2022-09-28T19:19:08.930Z,100285.81
2022-09-28T19:21:37.266Z,100288.00
2022-09-28T19:24:07.154Z,100291.00
2022-09-28T19:26:35.558Z,100297.50
2022-09-28T19:29:03.933Z,100303.78
2022-09-28T19:31:32.719Z,100302.53
2022-09-28T19:34:00.939Z,100301.09
2022-09-28T19:36:30.288Z,100305.56
2022-09-28T19:39:02.961Z,100302.25
2022-09-28T19:41:44.554Z,100307.94
2022-09-28T19:44:24.700Z,100310.94
2022-09-28T19:46:55.426Z,100303.41
2022-09-28T19:49:24.629Z,100305.41
2022-09-28T19:52:14.396Z,100305.78
2022-09-28T19:54:45.055Z,100304.34
2022-09-28T19:57:16.169Z,100304.53
2022-09-28T19:59:45.940Z,100307.34
2022-09-28T20:02:16.750Z,100307.75
2022-09-28T20:04:44.879Z,100304.28
2022-09-28T20:07:13.550Z,100303.63
2022-09-28T20:09:42.142Z,100310.56
2022-09-28T20:12:10.507Z,100307.28
2022-09-28T20:14:40.554Z,100306.47
2022-09-28T20:17:08.976Z,100305.00
2022-09-28T20:19:37.512Z,100302.75
2022-09-28T20:22:05.797Z,100303.28
2022-09-28T20:24:34.127Z,100304.91
2022-09-28T20:27:02.960Z,100310.38
2022-09-28T20:29:33.601Z,100315.84
2022-09-28T20:32:04.215Z,100316.03
2022-09-28T20:34:33.692Z,100313.56
2022-09-28T20:37:01.925Z,100323.31
2022-09-28T20:39:30.259Z,100327.34
2022-09-28T20:41:58.490Z,100326.69
2022-09-28T20:44:26.649Z,100321.78
2022-09-28T20:46:55.492Z,100324.88
2022-09-28T20:49:25.042Z,100320.13
2022-09-28T20:51:53.321Z,100324.16
2022-09-28T20:54:22.262Z,100320.06
2022-09-28T20:56:50.467Z,100323.88
2022-09-28T20:59:18.643Z,100325.69
2022-09-28T21:01:46.846Z,100334.63
2022-09-28T21:04:15.279Z,100335.63
2022-09-28T21:06:45.213Z,100326.72
2022-09-28T21:09:14.563Z,100337.63
2022-09-28T21:11:43.121Z,100336.81
2022-09-28T21:14:11.368Z,100338.81
2022-09-28T21:16:40.083Z,100328.63
2022-09-28T21:19:08.215Z,100338.72
2022-09-28T21:21:36.352Z,100335.25
2022-09-28T21:24:06.101Z,100334.44
2022-09-28T21:26:35.290Z,100339.09
2022-09-28T21:29:05.938Z,100335.19
2022-09-28T21:31:40.004Z,100332.72
2022-09-28T21:34:08.562Z,100336.34
2022-09-28T21:36:36.773Z,100336.53
2022-09-28T21:39:10.224Z,100337.72
2022-09-28T21:41:39.002Z,100336.09
2022-09-28T21:44:07.597Z,100335.25
2022-09-28T21:46:36.615Z,100337.09
2022-09-28T21:49:06.551Z,100339.72
2022-09-28T21:51:35.374Z,100335.25
2022-09-28T21:54:03.459Z,100332.44
2022-09-28T21:56:33.079Z,100336.09
2022-09-28T21:59:01.614Z,100334.44
2022-09-28T22:01:29.892Z,100331.34
2022-09-28T22:03:58.412Z,100335.81
2022-09-28T22:06:28.415Z,100327.91
2022-09-28T22:08:57.261Z,100329.09
2022-09-28T22:11:27.368Z,100333.38
2022-09-28T22:13:59.368Z,100333.38
2022-09-28T22:16:29.871Z,100339.81
2022-09-28T22:18:58.128Z,100334.53
2022-09-28T22:21:28.022Z,100332.09
2022-09-28T22:24:01.036Z,100334.91
2022-09-28T22:26:30.578Z,100327.16
2022-09-28T22:29:01.720Z,100330.00
2022-09-28T22:31:32.500Z,100331.16
2022-09-28T22:34:01.366Z,100326.25
2022-09-28T22:36:30.051Z,100328.09
2022-09-28T22:38:59.424Z,100328.09
2022-09-28T22:41:28.495Z,100324.16
2022-09-28T22:43:57.035Z,100326.00
2022-09-28T22:46:28.045Z,100319.06
2022-09-28T22:48:58.368Z,100321.06
2022-09-28T22:51:28.985Z,100316.97
2022-09-28T22:53:57.737Z,100325.88
2022-09-28T22:56:26.127Z,100314.69
2022-09-28T22:58:54.625Z,100325.41
2022-09-28T23:01:24.617Z,100315.06
2022-09-28T23:03:55.174Z,100327.22
2022-09-28T23:06:24.973Z,100323.78
2022-09-28T23:08:54.077Z,100318.06
2022-09-28T23:11:22.614Z,100318.06
2022-09-28T23:13:51.294Z,100316.41
2022-09-28T23:16:20.242Z,100326.94
2022-09-28T23:18:49.350Z,100317.41
2022-09-28T23:21:20.768Z,100311.31
2022-09-28T23:23:53.576Z,100310.50
2022-09-28T23:26:24.139Z,100319.56
2022-09-28T23:28:52.759Z,100325.66
2022-09-28T23:31:23.113Z,100323.41
2022-09-28T23:33:51.791Z,100325.03
2022-09-28T23:36:21.289Z,100322.41
2022-09-28T23:38:49.435Z,100313.88
2022-09-28T23:41:17.637Z,100315.84
2022-09-28T23:43:45.867Z,100301.22
2022-09-28T23:46:17.245Z,100302.03
2022-09-28T23:48:48.681Z,100298.75
2022-09-28T23:51:16.869Z,100296.13
2022-09-28T23:53:47.089Z,100296.13
2022-09-28T23:56:15.718Z,100292.84
2022-09-28T23:58:44.023Z,100290.41
